createdAt,value
2019-01-16T00:00:57.354Z,8.70
2019-01-16T00:01:57.341Z,8.60
2019-01-16T00:02:57.330Z,8.90
2019-01-16T00:03:57.318Z,8.70
2019-01-16T00:04:57.307Z,8.80
2019-01-16T00:05:57.297Z,8.60
2019-01-16T00:06:57.300Z,8.80
2019-01-16T00:07:57.276Z,8.70
2019-01-16T00:08:57.266Z,7.90
2019-01-16T00:09:57.255Z,9.40
2019-01-16T00:10:57.243Z,7.40
2019-01-16T00:11:57.234Z,8.40
2019-01-16T00:12:57.222Z,8.30
2019-01-16T00:13:57.212Z,7.90
2019-01-16T00:14:57.201Z,8.00
2019-01-16T00:15:57.190Z,7.70
2019-01-16T00:16:57.184Z,7.80
2019-01-16T00:17:57.169Z,7.90
2019-01-16T00:18:57.158Z,8.20
2019-01-16T00:19:57.148Z,7.90
2019-01-16T00:20:57.139Z,8.10
2019-01-16T00:21:57.127Z,7.90
2019-01-16T00:22:57.119Z,7.40
2019-01-16T00:23:57.106Z,7.70
2019-01-16T00:24:57.100Z,7.20
2019-01-16T00:25:57.084Z,7.50
2019-01-16T00:26:57.075Z,7.80
2019-01-16T00:27:57.062Z,7.10
2019-01-16T00:28:57.052Z,6.90
2019-01-16T00:29:57.041Z,7.30
2019-01-16T00:30:57.030Z,7.60
2019-01-16T00:31:57.019Z,6.80
2019-01-16T00:32:57.008Z,7.40
2019-01-16T00:33:56.997Z,6.30
2019-01-16T00:34:56.986Z,7.20
2019-01-16T00:35:56.977Z,7.40
2019-01-16T00:36:56.966Z,6.80
2019-01-16T00:37:56.955Z,6.70
2019-01-16T00:38:56.944Z,6.30
2019-01-16T00:39:56.935Z,6.40
2019-01-16T00:40:56.924Z,6.10
2019-01-16T00:41:56.912Z,6.50
2019-01-16T00:42:56.903Z,6.00
2019-01-16T00:43:56.893Z,6.30
2019-01-16T00:44:56.879Z,6.00
2019-01-16T00:45:56.870Z,6.40
2019-01-16T00:46:56.859Z,6.00
2019-01-16T00:47:56.847Z,6.10
2019-01-16T00:48:56.840Z,6.20
2019-01-16T00:49:56.829Z,5.90
2019-01-16T00:50:56.815Z,5.60
2019-01-16T00:51:56.806Z,5.70
2019-01-16T00:52:56.794Z,6.10
2019-01-16T00:53:56.784Z,5.40
2019-01-16T00:54:56.773Z,6.10
2019-01-16T00:55:56.762Z,5.70
2019-01-16T00:56:56.755Z,5.90
2019-01-16T00:57:56.742Z,5.80
2019-01-16T00:58:56.751Z,6.00
2019-01-16T00:59:56.720Z,5.30
2019-01-16T01:00:56.709Z,4.90
2019-01-16T01:01:56.704Z,5.90
2019-01-16T01:02:56.687Z,5.20
2019-01-16T01:03:56.678Z,5.10
2019-01-16T01:04:56.667Z,5.30
2019-01-16T01:05:56.684Z,5.00
2019-01-16T01:06:56.646Z,5.20
2019-01-16T01:07:56.636Z,5.30
2019-01-16T01:08:56.623Z,5.40
2019-01-16T01:09:56.616Z,5.60
2019-01-16T01:10:56.602Z,4.70
2019-01-16T01:11:56.592Z,4.80
2019-01-16T01:12:56.630Z,5.10
2019-01-16T01:13:56.569Z,4.80
2019-01-16T01:14:56.564Z,5.10
2019-01-16T01:15:56.548Z,4.90
2019-01-16T01:16:56.538Z,4.70
2019-01-16T01:17:56.526Z,4.70
2019-01-16T01:18:56.522Z,4.80
2019-01-16T01:19:56.506Z,5.00
2019-01-16T01:20:56.498Z,4.90
2019-01-16T01:21:56.483Z,5.20
2019-01-16T01:22:56.477Z,5.30
2019-01-16T01:23:56.464Z,5.00
2019-01-16T01:24:56.453Z,5.30
2019-01-16T01:25:56.442Z,5.50
2019-01-16T01:26:56.432Z,5.20
2019-01-16T01:27:56.423Z,5.30
2019-01-16T01:28:56.409Z,5.00
2019-01-16T01:29:56.400Z,5.00
2019-01-16T01:30:56.388Z,5.30
2019-01-16T01:31:56.377Z,5.40
2019-01-16T01:32:56.367Z,5.40
2019-01-16T01:33:56.355Z,5.70
2019-01-16T01:34:56.349Z,5.10
2019-01-16T01:35:56.334Z,5.70
2019-01-16T01:36:56.328Z,5.40
2019-01-16T01:37:56.312Z,5.80
2019-01-16T01:38:56.303Z,5.80
2019-01-16T01:39:56.291Z,5.20
2019-01-16T01:40:56.280Z,5.50
2019-01-16T01:41:56.270Z,5.80
2019-01-16T01:42:56.259Z,5.50
2019-01-16T01:43:56.247Z,5.80
2019-01-16T01:44:56.243Z,5.60
2019-01-16T01:45:56.230Z,5.80
2019-01-16T01:46:56.217Z,5.90
2019-01-16T01:47:56.206Z,5.80
2019-01-16T01:48:56.195Z,5.80
2019-01-16T01:49:56.185Z,5.50
2019-01-16T01:50:56.174Z,6.00
2019-01-16T01:51:56.162Z,5.90
2019-01-16T01:52:56.152Z,5.60
2019-01-16T01:53:56.141Z,5.60
2019-01-16T01:54:56.130Z,5.80
2019-01-16T01:55:56.120Z,5.40
2019-01-16T01:56:56.109Z,5.70
2019-01-16T01:57:56.100Z,6.10
2019-01-16T01:58:56.090Z,5.50
2019-01-16T01:59:56.080Z,5.20
2019-01-16T02:00:56.070Z,5.60
2019-01-16T02:01:56.056Z,5.60
2019-01-16T02:02:56.046Z,5.40
2019-01-16T02:03:56.035Z,5.50
2019-01-16T02:04:56.024Z,5.20
2019-01-16T02:05:56.014Z,5.10
2019-01-16T02:06:56.001Z,5.00
2019-01-16T02:07:55.991Z,5.60
2019-01-16T02:08:55.979Z,5.40
2019-01-16T02:09:55.971Z,5.40
2019-01-16T02:10:55.960Z,4.90
2019-01-16T02:11:55.953Z,5.40
2019-01-16T02:12:55.939Z,4.50
2019-01-16T02:13:55.928Z,5.00
2019-01-16T02:14:55.916Z,5.50
2019-01-16T02:15:55.905Z,4.50
2019-01-16T02:16:55.894Z,5.00
2019-01-16T02:17:55.883Z,5.40
2019-01-16T02:18:55.873Z,5.30
2019-01-16T02:19:55.863Z,5.30
2019-01-16T02:20:55.850Z,5.50
2019-01-16T02:21:55.841Z,5.40
2019-01-16T02:22:55.830Z,5.60
2019-01-16T02:23:55.819Z,6.00
2019-01-16T02:24:55.808Z,5.60
2019-01-16T02:25:55.803Z,5.70
2019-01-16T02:26:55.787Z,6.00
2019-01-16T02:27:56.875Z,5.50
2019-01-16T02:28:55.766Z,5.70
2019-01-16T02:29:55.755Z,5.70
2019-01-16T02:30:55.744Z,6.10
2019-01-16T02:31:55.735Z,6.20
2019-01-16T02:32:55.725Z,6.50
2019-01-16T02:33:55.715Z,6.50
2019-01-16T02:34:55.702Z,7.10
2019-01-16T02:35:55.693Z,6.30
2019-01-16T02:36:55.681Z,6.40
2019-01-16T02:37:55.671Z,6.40
2019-01-16T02:38:55.661Z,6.30
2019-01-16T02:39:55.648Z,6.30
2019-01-16T02:40:55.639Z,6.50
2019-01-16T02:41:55.628Z,6.90
2019-01-16T02:42:55.618Z,6.70
2019-01-16T02:43:55.606Z,7.40
2019-01-16T02:44:55.595Z,6.10
2019-01-16T02:45:55.585Z,6.70
2019-01-16T02:46:55.577Z,7.30
2019-01-16T02:47:55.564Z,6.70
2019-01-16T02:48:56.172Z,7.20
2019-01-16T02:49:55.543Z,6.90
2019-01-16T02:50:55.533Z,6.20
2019-01-16T02:51:55.521Z,7.50
2019-01-16T02:52:55.514Z,7.50
2019-01-16T02:53:55.498Z,6.60
2019-01-16T02:54:55.489Z,7.50
2019-01-16T02:55:57.464Z,6.20
2019-01-16T02:56:55.472Z,7.80
2019-01-16T02:57:55.457Z,7.80
2019-01-16T02:58:55.448Z,7.80
2019-01-16T02:59:55.435Z,7.50
2019-01-16T03:00:55.424Z,7.20
2019-01-16T03:01:55.431Z,7.50
2019-01-16T03:02:55.402Z,7.10
2019-01-16T03:03:55.393Z,7.50
2019-01-16T03:04:55.381Z,7.60
2019-01-16T03:05:55.370Z,4.70
2019-01-16T03:06:55.358Z,7.50
2019-01-16T03:07:55.349Z,7.50
2019-01-16T03:08:55.340Z,7.30
2019-01-16T03:09:55.327Z,7.40
2019-01-16T03:10:55.322Z,7.50
2019-01-16T03:11:55.305Z,7.80
2019-01-16T03:12:55.295Z,7.10
2019-01-16T03:13:55.303Z,7.70
2019-01-16T03:14:55.275Z,7.30
2019-01-16T03:15:55.264Z,8.10
2019-01-16T03:16:55.252Z,8.20
2019-01-16T03:17:55.242Z,7.10
2019-01-16T03:18:55.230Z,7.50
2019-01-16T03:19:55.220Z,7.50
2019-01-16T03:20:55.209Z,8.00
2019-01-16T03:21:55.203Z,8.10
2019-01-16T03:22:55.197Z,8.20
2019-01-16T03:23:55.179Z,8.60
2019-01-16T03:24:55.168Z,8.50
2019-01-16T03:25:55.155Z,8.60
2019-01-16T03:26:55.145Z,8.60
2019-01-16T03:27:55.134Z,8.90
2019-01-16T03:28:55.131Z,9.00
2019-01-16T03:29:55.112Z,8.70
2019-01-16T03:30:55.107Z,9.20
2019-01-16T03:31:55.094Z,9.30
2019-01-16T03:32:55.083Z,9.50
2019-01-16T03:33:55.071Z,8.50
2019-01-16T03:34:55.060Z,8.60
2019-01-16T03:35:55.049Z,10.10
2019-01-16T03:36:55.038Z,9.40
2019-01-16T03:37:55.030Z,9.10
2019-01-16T03:38:55.017Z,9.80
2019-01-16T03:39:55.007Z,9.40
2019-01-16T03:40:54.997Z,9.00
2019-01-16T03:41:54.985Z,8.30
2019-01-16T03:42:54.975Z,9.50
2019-01-16T03:43:54.964Z,9.30
2019-01-16T03:44:54.956Z,9.50
2019-01-16T03:45:54.944Z,10.10
2019-01-16T03:46:54.931Z,9.00
2019-01-16T03:47:54.922Z,9.80
2019-01-16T03:48:54.911Z,10.50
2019-01-16T03:49:54.901Z,9.90
2019-01-16T03:50:54.890Z,10.10
2019-01-16T03:51:54.879Z,10.60
2019-01-16T03:52:54.868Z,10.40
2019-01-16T03:53:54.858Z,10.20
2019-01-16T03:54:54.846Z,10.70
2019-01-16T03:55:54.835Z,11.00
2019-01-16T03:56:54.834Z,10.50
2019-01-16T03:57:54.905Z,11.20
2019-01-16T03:58:54.804Z,10.70
2019-01-16T03:59:54.792Z,11.40
2019-01-16T04:00:54.783Z,11.60
2019-01-16T04:01:54.772Z,11.40
2019-01-16T04:02:54.761Z,10.90
2019-01-16T04:03:54.750Z,11.70
2019-01-16T04:04:54.742Z,12.80
2019-01-16T04:05:54.728Z,13.40
2019-01-16T04:06:54.790Z,13.70
2019-01-16T04:07:54.708Z,13.00
2019-01-16T04:08:54.696Z,13.00
2019-01-16T04:09:54.686Z,13.20
2019-01-16T04:10:54.676Z,13.70
2019-01-16T04:11:54.665Z,13.60
2019-01-16T04:12:54.654Z,12.90
2019-01-16T04:13:54.642Z,13.70
2019-01-16T04:14:54.638Z,13.80
2019-01-16T04:15:54.624Z,13.80
2019-01-16T04:16:54.614Z,14.10
2019-01-16T04:17:54.602Z,13.80
2019-01-16T04:18:54.590Z,13.40
2019-01-16T04:19:54.579Z,13.40
2019-01-16T04:20:54.569Z,13.40
2019-01-16T04:21:54.560Z,14.80
2019-01-16T04:22:54.552Z,14.70
2019-01-16T04:23:54.537Z,14.00
2019-01-16T04:24:54.527Z,13.90
2019-01-16T04:25:54.516Z,13.90
2019-01-16T04:26:54.506Z,14.20
2019-01-16T04:27:54.497Z,15.30
2019-01-16T04:28:54.483Z,13.80
2019-01-16T04:29:54.474Z,13.50
2019-01-16T04:30:54.465Z,15.00
2019-01-16T04:31:54.455Z,14.50
2019-01-16T04:32:54.440Z,13.90
2019-01-16T04:33:54.433Z,14.70
2019-01-16T04:34:54.418Z,15.00
2019-01-16T04:35:54.409Z,14.50
2019-01-16T04:36:54.403Z,13.60
2019-01-16T04:37:54.392Z,13.90
2019-01-16T04:38:54.377Z,14.50
2019-01-16T04:39:54.374Z,14.30
2019-01-16T04:40:54.355Z,14.40
2019-01-16T04:41:54.345Z,14.60
2019-01-16T04:42:54.341Z,14.50
2019-01-16T04:43:54.325Z,15.10
2019-01-16T04:44:54.313Z,14.60
2019-01-16T04:45:54.305Z,14.90
2019-01-16T04:46:54.290Z,14.80
2019-01-16T04:47:54.280Z,14.30
2019-01-16T04:48:54.268Z,13.30
2019-01-16T04:49:54.261Z,14.20
2019-01-16T04:50:54.248Z,14.40
2019-01-16T04:51:54.238Z,14.30
2019-01-16T04:52:54.225Z,15.00
2019-01-16T04:53:54.219Z,14.90
2019-01-16T04:54:54.211Z,14.20
2019-01-16T04:55:54.196Z,14.80
2019-01-16T04:56:54.192Z,14.30
2019-01-16T04:57:54.173Z,14.70
2019-01-16T04:58:54.162Z,13.90
2019-01-16T04:59:54.251Z,15.10
2019-01-16T05:00:54.161Z,14.70
2019-01-16T05:01:54.133Z,14.50
2019-01-16T05:02:54.119Z,14.00
2019-01-16T05:03:54.118Z,14.00
2019-01-16T05:04:54.426Z,14.60
2019-01-16T05:05:54.087Z,14.20
2019-01-16T05:06:54.086Z,14.90
2019-01-16T05:07:54.065Z,14.20
2019-01-16T05:08:54.055Z,14.40
2019-01-16T05:09:54.048Z,14.90
2019-01-16T05:10:54.039Z,13.90
2019-01-16T05:11:54.029Z,14.70
2019-01-16T05:12:54.018Z,14.40
2019-01-16T05:13:54.009Z,14.10
2019-01-16T05:14:53.993Z,13.70
2019-01-16T05:15:53.980Z,13.80
2019-01-16T05:16:53.970Z,14.60
2019-01-16T05:17:53.961Z,14.10
2019-01-16T05:18:53.958Z,14.40
2019-01-16T05:19:53.938Z,14.70
2019-01-16T05:20:53.928Z,14.40
2019-01-16T05:21:53.916Z,14.10
2019-01-16T05:22:53.909Z,14.50
2019-01-16T05:23:53.900Z,14.80
2019-01-16T05:24:53.884Z,14.90
2019-01-16T05:25:53.873Z,14.40
2019-01-16T05:26:53.863Z,13.90
2019-01-16T05:27:53.855Z,13.90
2019-01-16T05:28:53.840Z,13.80
2019-01-16T05:29:53.833Z,13.80
2019-01-16T05:30:53.819Z,13.20
2019-01-16T05:31:53.810Z,14.30
2019-01-16T05:32:53.798Z,13.20
2019-01-16T05:33:53.788Z,13.60
2019-01-16T05:34:53.777Z,12.50
2019-01-16T05:35:53.766Z,13.50
2019-01-16T05:36:53.755Z,13.60
2019-01-16T05:37:53.746Z,12.60
2019-01-16T05:38:53.735Z,13.10
2019-01-16T05:39:53.723Z,12.60
2019-01-16T05:40:53.713Z,12.40
2019-01-16T05:41:53.702Z,12.50
2019-01-16T05:42:53.694Z,12.60
2019-01-16T05:43:53.905Z,13.30
2019-01-16T05:44:53.674Z,11.90
2019-01-16T05:45:53.661Z,11.50
2019-01-16T05:46:53.649Z,11.70
2019-01-16T05:47:53.638Z,11.80
2019-01-16T05:48:53.638Z,10.70
2019-01-16T05:49:53.621Z,10.10
2019-01-16T05:50:53.607Z,10.90
2019-01-16T05:51:53.600Z,10.60
2019-01-16T05:52:53.587Z,10.60
2019-01-16T05:53:53.573Z,11.00
2019-01-16T05:54:53.563Z,10.40
2019-01-16T05:55:53.552Z,10.10
2019-01-16T05:56:53.547Z,10.70
2019-01-16T05:57:53.531Z,10.30
2019-01-16T05:58:53.521Z,10.00
2019-01-16T05:59:53.514Z,9.70
2019-01-16T06:00:53.500Z,9.90
2019-01-16T06:01:53.487Z,9.70
2019-01-16T06:02:53.480Z,10.30
2019-01-16T06:03:53.467Z,9.80
2019-01-16T06:04:53.456Z,9.90
2019-01-16T06:05:53.447Z,9.30
2019-01-16T06:06:53.435Z,9.70
2019-01-16T06:07:53.426Z,9.80
2019-01-16T06:08:53.415Z,9.60
2019-01-16T06:09:53.405Z,9.70
2019-01-16T06:10:53.392Z,9.70
2019-01-16T06:11:53.383Z,9.70
2019-01-16T06:12:53.371Z,9.00
2019-01-16T06:13:53.363Z,9.90
2019-01-16T06:14:53.350Z,8.80
2019-01-16T06:15:53.338Z,9.70
2019-01-16T06:16:53.330Z,9.90
2019-01-16T06:17:53.321Z,10.70
2019-01-16T06:18:53.308Z,10.30
2019-01-16T06:19:54.173Z,10.30
2019-01-16T06:20:53.288Z,11.70
2019-01-16T06:21:53.277Z,10.90
2019-01-16T06:22:53.270Z,11.50
2019-01-16T06:23:53.253Z,12.90
2019-01-16T06:24:53.242Z,12.00
2019-01-16T06:25:53.231Z,10.80
2019-01-16T06:26:53.222Z,11.00
2019-01-16T06:27:53.211Z,10.60
2019-01-16T06:28:53.203Z,11.50
2019-01-16T06:29:53.190Z,10.40
2019-01-16T06:30:53.177Z,9.70
2019-01-16T06:31:53.167Z,11.60
2019-01-16T06:32:53.157Z,11.20
2019-01-16T06:33:53.148Z,11.10
2019-01-16T06:34:53.137Z,10.90
2019-01-16T06:35:53.128Z,10.80
2019-01-16T06:36:53.115Z,10.40
2019-01-16T06:37:53.105Z,10.40
2019-01-16T06:38:53.092Z,12.30
2019-01-16T06:39:53.082Z,12.80
2019-01-16T06:40:53.071Z,11.00
2019-01-16T06:41:53.063Z,11.80
2019-01-16T06:42:53.052Z,14.00
2019-01-16T06:43:53.039Z,14.00
2019-01-16T06:44:53.028Z,11.10
2019-01-16T06:45:53.082Z,11.00
2019-01-16T06:46:53.009Z,13.70
2019-01-16T06:47:52.997Z,12.00
2019-01-16T06:48:52.990Z,12.60
2019-01-16T06:49:52.975Z,11.70
2019-01-16T06:50:52.964Z,13.30
2019-01-16T06:51:52.956Z,12.70
2019-01-16T06:52:52.943Z,13.70
2019-01-16T06:53:52.931Z,15.90
2019-01-16T06:54:52.922Z,15.80
2019-01-16T06:55:52.910Z,14.80
2019-01-16T06:56:52.902Z,14.40
2019-01-16T06:57:52.896Z,13.00
2019-01-16T06:58:52.878Z,15.70
2019-01-16T06:59:52.868Z,14.50
2019-01-16T07:00:52.859Z,14.00
2019-01-16T07:01:52.847Z,11.80
2019-01-16T07:02:52.836Z,14.50
2019-01-16T07:03:52.836Z,15.10
2019-01-16T07:04:52.815Z,13.50
2019-01-16T07:05:52.826Z,11.70
2019-01-16T07:06:52.792Z,13.30
2019-01-16T07:07:52.782Z,12.20
2019-01-16T07:08:52.785Z,13.30
2019-01-16T07:09:52.772Z,12.90
2019-01-16T07:10:52.750Z,13.10
2019-01-16T07:11:52.739Z,12.20
2019-01-16T07:12:52.729Z,12.80
2019-01-16T07:13:52.719Z,12.20
2019-01-16T07:14:52.707Z,13.10
2019-01-16T07:15:52.698Z,13.00
2019-01-16T07:16:52.688Z,12.50
2019-01-16T07:17:52.676Z,11.80
2019-01-16T07:18:52.664Z,12.70
2019-01-16T07:19:52.655Z,12.30
2019-01-16T07:20:52.643Z,12.50
2019-01-16T07:21:52.633Z,12.60
2019-01-16T07:22:52.636Z,12.00
2019-01-16T07:23:52.612Z,12.60
2019-01-16T07:24:52.599Z,12.60
2019-01-16T07:25:52.592Z,12.10
2019-01-16T07:26:52.579Z,12.80
2019-01-16T07:27:52.570Z,12.70
2019-01-16T07:28:52.559Z,13.40
2019-01-16T07:29:52.548Z,13.10
2019-01-16T07:30:52.537Z,12.60
2019-01-16T07:31:52.526Z,12.60
2019-01-16T07:32:52.567Z,12.60
2019-01-16T07:33:52.504Z,14.80
2019-01-16T07:34:52.497Z,12.00
2019-01-16T07:35:52.482Z,12.20
2019-01-16T07:36:52.473Z,12.00
2019-01-16T07:37:52.461Z,11.70
2019-01-16T07:38:52.450Z,11.40
2019-01-16T07:39:52.442Z,11.70
2019-01-16T07:40:52.431Z,12.10
2019-01-16T07:41:52.420Z,12.80
2019-01-16T07:42:52.414Z,12.90
2019-01-16T07:43:52.399Z,12.00
2019-01-16T07:44:52.390Z,11.30
2019-01-16T07:45:52.376Z,11.70
2019-01-16T07:46:52.367Z,11.70
2019-01-16T07:47:52.355Z,11.20
2019-01-16T07:48:52.345Z,11.60
2019-01-16T07:49:52.335Z,11.20
2019-01-16T07:50:52.323Z,10.80
2019-01-16T07:51:52.312Z,11.30
2019-01-16T07:52:52.304Z,11.50
2019-01-16T07:53:52.290Z,11.80
2019-01-16T07:54:52.281Z,11.00
2019-01-16T07:55:52.271Z,11.10
2019-01-16T07:56:52.261Z,11.40
2019-01-16T07:57:52.249Z,11.20
2019-01-16T07:58:52.237Z,11.30
2019-01-16T07:59:52.228Z,11.10
2019-01-16T08:00:52.218Z,11.30
2019-01-16T08:01:52.210Z,10.90
2019-01-16T08:02:52.196Z,10.10
2019-01-16T08:03:52.184Z,9.60
2019-01-16T08:04:52.175Z,9.60
2019-01-16T08:05:52.164Z,10.00
2019-01-16T08:06:52.153Z,10.00
2019-01-16T08:07:52.152Z,10.20
2019-01-16T08:08:52.130Z,9.80
2019-01-16T08:09:52.126Z,10.20
2019-01-16T08:10:52.109Z,9.40
2019-01-16T08:11:52.098Z,9.20
2019-01-16T08:12:52.089Z,9.10
2019-01-16T08:13:52.076Z,9.40
2019-01-16T08:14:52.069Z,9.90
2019-01-16T08:15:52.055Z,9.20
2019-01-16T08:16:52.044Z,9.20
2019-01-16T08:17:52.036Z,9.10
2019-01-16T08:18:52.024Z,9.60
2019-01-16T08:19:52.015Z,9.30
2019-01-16T08:20:52.003Z,8.80
2019-01-16T08:21:51.992Z,9.00
2019-01-16T08:22:51.981Z,9.50
2019-01-16T08:23:51.971Z,8.60
2019-01-16T08:24:51.961Z,9.20
2019-01-16T08:25:51.951Z,8.70
2019-01-16T08:26:51.938Z,9.10
2019-01-16T08:27:51.928Z,8.80
2019-01-16T08:28:51.917Z,9.10
2019-01-16T08:29:51.906Z,8.80
2019-01-16T08:30:51.896Z,9.00
2019-01-16T08:31:51.890Z,8.80
2019-01-16T08:32:51.878Z,8.70
2019-01-16T08:33:51.863Z,8.70
2019-01-16T08:34:51.855Z,8.60
2019-01-16T08:35:51.842Z,8.60
2019-01-16T08:36:51.834Z,8.80
2019-01-16T08:37:51.822Z,8.70
2019-01-16T08:38:51.811Z,8.80
2019-01-16T08:39:51.800Z,9.00
2019-01-16T08:40:51.788Z,8.10
2019-01-16T08:41:51.779Z,8.20
2019-01-16T08:42:51.766Z,9.20
2019-01-16T08:43:51.757Z,8.40
2019-01-16T08:44:51.746Z,8.60
2019-01-16T08:45:51.739Z,8.80
2019-01-16T08:46:51.728Z,8.10
2019-01-16T08:47:51.717Z,8.40
2019-01-16T08:48:51.704Z,7.70
2019-01-16T08:49:51.692Z,8.10
2019-01-16T08:50:51.683Z,8.20
2019-01-16T08:51:51.672Z,8.80
2019-01-16T08:52:51.659Z,8.00
2019-01-16T08:53:51.649Z,7.90
2019-01-16T08:54:51.638Z,8.00
2019-01-16T08:55:51.628Z,7.80
2019-01-16T08:56:51.617Z,7.80
2019-01-16T08:57:51.606Z,7.60
2019-01-16T08:58:51.603Z,7.80
2019-01-16T08:59:51.586Z,8.20
2019-01-16T09:00:51.574Z,7.50
2019-01-16T09:01:51.567Z,7.90
2019-01-16T09:02:51.556Z,7.80
2019-01-16T09:03:51.544Z,7.90
2019-01-16T09:04:51.532Z,7.30
2019-01-16T09:05:51.520Z,8.30
2019-01-16T09:06:51.511Z,7.60
2019-01-16T09:07:51.499Z,7.90
2019-01-16T09:08:51.491Z,7.70
2019-01-16T09:09:51.479Z,8.00
2019-01-16T09:10:51.466Z,7.40
2019-01-16T09:11:51.459Z,7.90
2019-01-16T09:12:51.451Z,7.60
2019-01-16T09:13:51.438Z,7.80
2019-01-16T09:14:51.429Z,8.10
2019-01-16T09:15:51.417Z,8.10
2019-01-16T09:16:51.402Z,7.90
2019-01-16T09:17:51.394Z,8.00
2019-01-16T09:18:51.381Z,7.80
2019-01-16T09:19:51.370Z,7.80
2019-01-16T09:20:51.361Z,7.70
2019-01-16T09:21:51.351Z,7.70
2019-01-16T09:22:51.338Z,7.50
2019-01-16T09:23:51.333Z,7.50
2019-01-16T09:24:51.323Z,7.70
2019-01-16T09:25:51.310Z,7.70
2019-01-16T09:26:51.295Z,7.60
2019-01-16T09:27:51.288Z,7.70
2019-01-16T09:28:51.273Z,7.80
2019-01-16T09:29:51.264Z,7.40
2019-01-16T09:30:51.316Z,7.60
2019-01-16T09:31:51.242Z,7.20
2019-01-16T09:32:51.235Z,7.30
2019-01-16T09:33:51.221Z,8.00
2019-01-16T09:34:51.210Z,7.20
2019-01-16T09:35:51.199Z,7.30
2019-01-16T09:36:51.188Z,7.80
2019-01-16T09:37:51.178Z,7.20
2019-01-16T09:38:51.172Z,7.30
2019-01-16T09:39:51.156Z,7.30
2019-01-16T09:40:51.146Z,6.40
2019-01-16T09:41:51.138Z,6.70
2019-01-16T09:42:51.130Z,6.40
2019-01-16T09:43:51.114Z,6.70
2019-01-16T09:44:51.105Z,6.60
2019-01-16T09:45:51.094Z,6.60
2019-01-16T09:46:51.086Z,6.70
2019-01-16T09:47:51.071Z,6.60
2019-01-16T09:48:51.064Z,6.50
2019-01-16T09:49:51.056Z,6.80
2019-01-16T09:50:51.043Z,6.90
2019-01-16T09:51:51.029Z,6.40
2019-01-16T09:52:51.080Z,7.00
2019-01-16T09:53:51.040Z,7.00
2019-01-16T09:54:50.997Z,7.40
2019-01-16T09:55:50.987Z,6.20
2019-01-16T09:56:50.975Z,7.20
2019-01-16T09:57:50.965Z,7.20
2019-01-16T09:58:50.956Z,7.00
2019-01-16T09:59:50.945Z,6.70
2019-01-16T10:00:50.932Z,6.60
2019-01-16T10:01:50.923Z,7.50
2019-01-16T10:02:50.920Z,7.00
2019-01-16T10:03:50.899Z,7.20
2019-01-16T10:04:50.891Z,6.80
2019-01-16T10:05:50.878Z,6.80
2019-01-16T10:06:50.869Z,6.90
2019-01-16T10:07:50.858Z,6.70
2019-01-16T10:08:50.848Z,7.30
2019-01-16T10:09:50.838Z,7.10
2019-01-16T10:10:50.832Z,7.30
2019-01-16T10:11:50.818Z,7.30
2019-01-16T10:12:50.806Z,6.90
2019-01-16T10:13:50.794Z,6.80
2019-01-16T10:14:50.784Z,6.70
2019-01-16T10:15:50.773Z,6.60
2019-01-16T10:16:50.762Z,7.10
2019-01-16T10:17:50.755Z,6.80
2019-01-16T10:18:50.741Z,6.70
2019-01-16T10:19:50.734Z,6.50
2019-01-16T10:20:55.626Z,6.30
2019-01-16T10:21:51.706Z,6.50
2019-01-16T10:22:50.698Z,6.30
2019-01-16T10:23:50.687Z,6.50
2019-01-16T10:24:50.678Z,6.20
2019-01-16T10:25:50.665Z,6.00
2019-01-16T10:26:50.654Z,6.30
2019-01-16T10:27:50.650Z,6.20
2019-01-16T10:28:50.633Z,6.10
2019-01-16T10:29:50.624Z,5.60
2019-01-16T10:30:50.617Z,5.40
2019-01-16T10:31:50.605Z,5.80
2019-01-16T10:32:50.591Z,6.20
2019-01-16T10:33:50.579Z,5.80
2019-01-16T10:34:50.569Z,5.40
2019-01-16T10:35:50.558Z,5.50
2019-01-16T10:36:50.550Z,5.50
2019-01-16T10:37:50.537Z,5.50
2019-01-16T10:38:50.526Z,5.60
2019-01-16T10:39:50.516Z,5.30
2019-01-16T10:40:50.504Z,5.40
2019-01-16T10:41:50.495Z,5.40
2019-01-16T10:42:50.484Z,5.40
2019-01-16T10:43:50.472Z,5.00
2019-01-16T10:44:50.461Z,5.00
2019-01-16T10:45:50.457Z,5.50
2019-01-16T10:46:50.441Z,4.90
2019-01-16T10:47:50.431Z,5.50
2019-01-16T10:48:50.426Z,5.20
2019-01-16T10:49:50.411Z,4.80
2019-01-16T10:50:50.401Z,5.00
2019-01-16T10:51:50.388Z,5.00
2019-01-16T10:52:50.377Z,4.80
2019-01-16T10:53:50.370Z,4.90
2019-01-16T10:54:50.359Z,5.00
2019-01-16T10:55:50.346Z,4.70
2019-01-16T10:56:50.339Z,5.10
2019-01-16T10:57:50.324Z,5.20
2019-01-16T10:58:50.319Z,5.10
2019-01-16T10:59:50.303Z,4.80
2019-01-16T11:00:50.297Z,5.00
2019-01-16T11:01:50.287Z,5.00
2019-01-16T11:02:50.272Z,4.50
2019-01-16T11:03:50.261Z,4.80
2019-01-16T11:04:50.258Z,5.00
2019-01-16T11:05:50.239Z,4.90
2019-01-16T11:06:50.228Z,4.80
2019-01-16T11:07:50.218Z,4.30
2019-01-16T11:08:50.208Z,4.50
2019-01-16T11:09:50.197Z,4.50
2019-01-16T11:10:50.188Z,4.40
2019-01-16T11:11:50.176Z,4.00
2019-01-16T11:12:50.165Z,4.40
2019-01-16T11:13:50.153Z,4.60
2019-01-16T11:14:50.143Z,4.50
2019-01-16T11:15:50.139Z,4.40
2019-01-16T11:16:56.662Z,4.20
2019-01-16T11:17:51.110Z,5.00
2019-01-16T11:18:50.100Z,4.60
2019-01-16T11:19:50.090Z,4.90
2019-01-16T11:20:50.082Z,4.80
2019-01-16T11:21:50.067Z,4.60
2019-01-16T11:22:50.057Z,4.40
2019-01-16T11:23:50.103Z,4.40
2019-01-16T11:24:50.040Z,4.50
2019-01-16T11:25:50.024Z,4.90
2019-01-16T11:26:50.014Z,4.70
2019-01-16T11:27:50.003Z,4.30
2019-01-16T11:28:49.994Z,4.10
2019-01-16T11:29:49.980Z,4.30
2019-01-16T11:30:49.971Z,4.40
2019-01-16T11:31:49.963Z,4.50
2019-01-16T11:32:49.950Z,4.20
2019-01-16T11:33:49.941Z,4.30
2019-01-16T11:34:49.926Z,4.90
2019-01-16T11:35:49.916Z,4.70
2019-01-16T11:36:49.907Z,4.30
2019-01-16T11:37:49.895Z,4.60
2019-01-16T11:38:49.885Z,3.80
2019-01-16T11:39:49.877Z,4.30
2019-01-16T11:40:50.835Z,4.50
2019-01-16T11:41:49.854Z,4.30
2019-01-16T11:42:49.841Z,4.50
2019-01-16T11:43:49.833Z,4.70
2019-01-16T11:44:49.822Z,4.30
2019-01-16T11:45:49.814Z,4.60
2019-01-16T11:46:49.803Z,4.20
2019-01-16T11:47:49.789Z,4.10
2019-01-16T11:48:49.780Z,4.70
2019-01-16T11:49:49.766Z,4.60
2019-01-16T11:50:49.756Z,4.60
2019-01-16T11:51:49.745Z,4.50
2019-01-16T11:52:49.735Z,3.90
2019-01-16T11:53:49.724Z,4.10
2019-01-16T11:54:49.713Z,4.00
2019-01-16T11:55:49.705Z,4.00
2019-01-16T11:56:49.692Z,4.20
2019-01-16T11:57:49.680Z,4.10
2019-01-16T11:58:49.671Z,4.20
2019-01-16T11:59:49.671Z,3.90
2019-01-16T12:00:49.649Z,4.20
2019-01-16T12:01:49.668Z,3.90
2019-01-16T12:02:49.627Z,3.50
2019-01-16T12:03:49.616Z,3.60
2019-01-16T12:04:49.607Z,3.40
2019-01-16T12:05:49.596Z,3.60
2019-01-16T12:06:49.584Z,3.60
2019-01-16T12:07:49.577Z,3.40
2019-01-16T12:08:49.563Z,3.80
2019-01-16T12:09:49.552Z,3.10
2019-01-16T12:10:49.542Z,3.60
2019-01-16T12:11:49.535Z,3.20
2019-01-16T12:12:49.520Z,3.30
2019-01-16T12:13:49.509Z,3.50
2019-01-16T12:14:49.499Z,3.60
2019-01-16T12:15:49.488Z,3.50
2019-01-16T12:16:49.479Z,3.50
2019-01-16T12:17:49.465Z,3.60
2019-01-16T12:18:49.455Z,3.60
2019-01-16T12:19:49.446Z,3.70
2019-01-16T12:20:49.434Z,3.80
2019-01-16T12:21:49.422Z,3.70
2019-01-16T12:22:49.413Z,3.60
2019-01-16T12:23:49.403Z,3.60
2019-01-16T12:24:49.390Z,3.30
2019-01-16T12:25:49.382Z,3.50
2019-01-16T12:26:49.371Z,3.30
2019-01-16T12:27:49.364Z,3.30
2019-01-16T12:28:49.349Z,2.80
2019-01-16T12:29:49.337Z,3.60
2019-01-16T12:30:49.331Z,3.30
2019-01-16T12:31:50.705Z,3.10
2019-01-16T12:32:49.310Z,3.20
2019-01-16T12:33:49.294Z,3.40
2019-01-16T12:34:49.283Z,3.00
2019-01-16T12:35:49.273Z,3.20
2019-01-16T12:36:49.263Z,3.00
2019-01-16T12:37:49.255Z,3.50
2019-01-16T12:38:49.242Z,2.70
2019-01-16T12:39:49.261Z,3.00
2019-01-16T12:40:49.220Z,3.40
2019-01-16T12:41:49.209Z,2.60
2019-01-16T12:42:49.199Z,2.90
2019-01-16T12:43:49.189Z,3.10
2019-01-16T12:44:49.178Z,3.10
2019-01-16T12:45:49.167Z,2.80
2019-01-16T12:46:49.156Z,3.20
2019-01-16T12:47:49.144Z,2.80
2019-01-16T12:48:49.136Z,3.00
2019-01-16T12:49:49.123Z,3.00
2019-01-16T12:50:49.117Z,2.80
2019-01-16T12:51:49.106Z,2.80
2019-01-16T12:52:54.163Z,3.20
2019-01-16T12:53:50.080Z,2.60
2019-01-16T12:54:49.071Z,2.90
2019-01-16T12:55:49.059Z,2.70
2019-01-16T12:56:49.048Z,2.90
2019-01-16T12:57:49.038Z,2.80
2019-01-16T12:58:49.030Z,2.70
2019-01-16T12:59:49.016Z,2.70
2019-01-16T13:00:49.006Z,2.90
2019-01-16T13:01:48.997Z,2.70
2019-01-16T13:02:48.986Z,2.70
2019-01-16T13:03:48.974Z,2.90
2019-01-16T13:04:48.965Z,2.50
2019-01-16T13:05:48.953Z,2.40
2019-01-16T13:06:48.941Z,2.80
2019-01-16T13:07:48.931Z,2.60
2019-01-16T13:08:48.921Z,2.50
2019-01-16T13:09:48.909Z,2.60
2019-01-16T13:10:48.903Z,2.70